sensor_id;sensor_type;location;lat;lon;timestamp;P1;durP1;ratioP1;P2;durP2;ratioP2
16228;SDS011;8222;51.462;12.630;2022-09-29T00:01:26;5.30;;;4.80;;
16228;SDS011;8222;51.462;12.630;2022-09-29T00:03:51;4.83;;;4.37;;
16228;SDS011;8222;51.462;12.630;2022-09-29T00:06:17;5.10;;;4.60;;
16228;SDS011;8222;51.462;12.630;2022-09-29T00:08:43;4.82;;;4.35;;
16228;SDS011;8222;51.462;12.630;2022-09-29T00:11:14;5.68;;;4.50;;
16228;SDS011;8222;51.462;12.630;2022-09-29T00:13:41;5.50;;;4.90;;
16228;SDS011;8222;51.462;12.630;2022-09-29T00:16:10;5.05;;;4.55;;
16228;SDS011;8222;51.462;12.630;2022-09-29T00:18:38;6.20;;;5.10;;
16228;SDS011;8222;51.462;12.630;2022-09-29T00:21:08;5.10;;;4.60;;
16228;SDS011;8222;51.462;12.630;2022-09-29T00:23:36;4.85;;;4.10;;
16228;SDS011;8222;51.462;12.630;2022-09-29T00:26:17;5.57;;;4.45;;
16228;SDS011;8222;51.462;12.630;2022-09-29T00:28:46;4.70;;;4.25;;
16228;SDS011;8222;51.462;12.630;2022-09-29T00:31:13;4.72;;;4.32;;
16228;SDS011;8222;51.462;12.630;2022-09-29T00:33:40;5.07;;;4.00;;
16228;SDS011;8222;51.462;12.630;2022-09-29T00:36:09;5.32;;;4.80;;
16228;SDS011;8222;51.462;12.630;2022-09-29T00:38:37;4.60;;;4.20;;
16228;SDS011;8222;51.462;12.630;2022-09-29T00:41:04;5.60;;;4.80;;
16228;SDS011;8222;51.462;12.630;2022-09-29T00:46:18;4.50;;;4.03;;
16228;SDS011;8222;51.462;12.630;2022-09-29T00:48:53;4.28;;;3.88;;
16228;SDS011;8222;51.462;12.630;2022-09-29T00:51:21;4.78;;;4.30;;
16228;SDS011;8222;51.462;12.630;2022-09-29T00:53:51;4.55;;;3.92;;
16228;SDS011;8222;51.462;12.630;2022-09-29T00:56:17;4.40;;;4.00;;
16228;SDS011;8222;51.462;12.630;2022-09-29T00:58:48;4.78;;;4.28;;
16228;SDS011;8222;51.462;12.630;2022-09-29T01:01:24;4.47;;;4.00;;
16228;SDS011;8222;51.462;12.630;2022-09-29T01:03:53;6.88;;;4.45;;
16228;SDS011;8222;51.462;12.630;2022-09-29T01:06:30;5.53;;;4.65;;
16228;SDS011;8222;51.462;12.630;2022-09-29T01:09:05;5.32;;;4.68;;
16228;SDS011;8222;51.462;12.630;2022-09-29T01:11:34;4.85;;;4.25;;
16228;SDS011;8222;51.462;12.630;2022-09-29T01:14:02;5.90;;;5.18;;
16228;SDS011;8222;51.462;12.630;2022-09-29T01:16:31;5.17;;;4.67;;
16228;SDS011;8222;51.462;12.630;2022-09-29T01:19:02;6.07;;;4.80;;
16228;SDS011;8222;51.462;12.630;2022-09-29T01:24:49;5.13;;;4.63;;
16228;SDS011;8222;51.462;12.630;2022-09-29T01:27:28;5.90;;;4.75;;
16228;SDS011;8222;51.462;12.630;2022-09-29T01:30:20;5.75;;;5.03;;
16228;SDS011;8222;51.462;12.630;2022-09-29T01:33:03;7.10;;;4.77;;
16228;SDS011;8222;51.462;12.630;2022-09-29T01:44:01;7.63;;;5.95;;
16228;SDS011;8222;51.462;12.630;2022-09-29T01:49:28;6.35;;;5.28;;
16228;SDS011;8222;51.462;12.630;2022-09-29T01:52:07;6.47;;;5.22;;
16228;SDS011;8222;51.462;12.630;2022-09-29T01:54:51;6.28;;;5.35;;
16228;SDS011;8222;51.462;12.630;2022-09-29T02:00:45;7.90;;;6.25;;
16228;SDS011;8222;51.462;12.630;2022-09-29T02:03:21;6.70;;;5.38;;
16228;SDS011;8222;51.462;12.630;2022-09-29T02:06:16;6.30;;;5.30;;
16228;SDS011;8222;51.462;12.630;2022-09-29T02:11:17;6.57;;;5.75;;
16228;SDS011;8222;51.462;12.630;2022-09-29T02:13:56;11.18;;;8.57;;
16228;SDS011;8222;51.462;12.630;2022-09-29T02:16:30;11.85;;;9.23;;
16228;SDS011;8222;51.462;12.630;2022-09-29T02:19:04;11.73;;;9.40;;
16228;SDS011;8222;51.462;12.630;2022-09-29T02:21:36;9.82;;;7.65;;
16228;SDS011;8222;51.462;12.630;2022-09-29T02:24:02;7.82;;;5.75;;
16228;SDS011;8222;51.462;12.630;2022-09-29T02:26:31;6.77;;;5.70;;
16228;SDS011;8222;51.462;12.630;2022-09-29T02:29:01;5.90;;;5.30;;
16228;SDS011;8222;51.462;12.630;2022-09-29T02:31:30;6.70;;;5.72;;
16228;SDS011;8222;51.462;12.630;2022-09-29T02:33:57;6.55;;;5.82;;
16228;SDS011;8222;51.462;12.630;2022-09-29T02:47:12;6.77;;;5.70;;
16228;SDS011;8222;51.462;12.630;2022-09-29T02:50:05;6.30;;;5.65;;
16228;SDS011;8222;51.462;12.630;2022-09-29T02:55:27;7.10;;;5.57;;
16228;SDS011;8222;51.462;12.630;2022-09-29T02:58:23;6.75;;;6.03;;
16228;SDS011;8222;51.462;12.630;2022-09-29T03:00:55;7.88;;;6.07;;
16228;SDS011;8222;51.462;12.630;2022-09-29T03:03:22;8.38;;;6.00;;
16228;SDS011;8222;51.462;12.630;2022-09-29T03:05:48;8.25;;;7.40;;
16228;SDS011;8222;51.462;12.630;2022-09-29T03:08:13;12.60;;;11.40;;
16228;SDS011;8222;51.462;12.630;2022-09-29T03:10:39;8.23;;;7.43;;
16228;SDS011;8222;51.462;12.630;2022-09-29T03:13:04;7.32;;;6.63;;
16228;SDS011;8222;51.462;12.630;2022-09-29T03:15:30;7.33;;;6.27;;
16228;SDS011;8222;51.462;12.630;2022-09-29T03:17:58;6.57;;;5.28;;
16228;SDS011;8222;51.462;12.630;2022-09-29T03:20:24;6.68;;;5.65;;
16228;SDS011;8222;51.462;12.630;2022-09-29T03:22:54;6.55;;;5.50;;
16228;SDS011;8222;51.462;12.630;2022-09-29T03:25:20;14.43;;;13.13;;
16228;SDS011;8222;51.462;12.630;2022-09-29T03:27:47;11.57;;;10.48;;
16228;SDS011;8222;51.462;12.630;2022-09-29T03:30:16;7.78;;;6.78;;
16228;SDS011;8222;51.462;12.630;2022-09-29T03:32:45;7.03;;;6.15;;
16228;SDS011;8222;51.462;12.630;2022-09-29T03:35:11;6.20;;;5.53;;
16228;SDS011;8222;51.462;12.630;2022-09-29T03:37:37;6.17;;;5.57;;
16228;SDS011;8222;51.462;12.630;2022-09-29T03:40:03;6.93;;;5.60;;
16228;SDS011;8222;51.462;12.630;2022-09-29T03:42:30;7.25;;;5.10;;
16228;SDS011;8222;51.462;12.630;2022-09-29T03:44:59;5.80;;;5.13;;
16228;SDS011;8222;51.462;12.630;2022-09-29T03:47:25;5.28;;;4.38;;
16228;SDS011;8222;51.462;12.630;2022-09-29T03:49:50;6.77;;;5.13;;
16228;SDS011;8222;51.462;12.630;2022-09-29T03:52:18;4.87;;;4.37;;
16228;SDS011;8222;51.462;12.630;2022-09-29T03:54:44;10.00;;;9.10;;
16228;SDS011;8222;51.462;12.630;2022-09-29T03:57:09;11.43;;;10.33;;
16228;SDS011;8222;51.462;12.630;2022-09-29T03:59:37;7.38;;;6.30;;
16228;SDS011;8222;51.462;12.630;2022-09-29T04:02:05;6.75;;;5.88;;
16228;SDS011;8222;51.462;12.630;2022-09-29T04:04:30;5.70;;;5.20;;
16228;SDS011;8222;51.462;12.630;2022-09-29T04:06:58;7.30;;;5.77;;
16228;SDS011;8222;51.462;12.630;2022-09-29T04:09:24;7.40;;;6.05;;
16228;SDS011;8222;51.462;12.630;2022-09-29T04:11:49;7.03;;;5.57;;
16228;SDS011;8222;51.462;12.630;2022-09-29T04:14:15;5.37;;;4.87;;
16228;SDS011;8222;51.462;12.630;2022-09-29T04:16:41;13.88;;;12.48;;
16228;SDS011;8222;51.462;12.630;2022-09-29T04:19:08;21.88;;;19.95;;
16228;SDS011;8222;51.462;12.630;2022-09-29T04:21:34;26.55;;;24.45;;
16228;SDS011;8222;51.462;12.630;2022-09-29T04:23:59;16.20;;;14.90;;
16228;SDS011;8222;51.462;12.630;2022-09-29T04:26:25;7.73;;;7.03;;
16228;SDS011;8222;51.462;12.630;2022-09-29T04:28:51;5.63;;;5.03;;
16228;SDS011;8222;51.462;12.630;2022-09-29T04:31:16;5.40;;;4.90;;
16228;SDS011;8222;51.462;12.630;2022-09-29T04:33:42;6.73;;;5.10;;
16228;SDS011;8222;51.462;12.630;2022-09-29T04:36:08;6.13;;;5.43;;
16228;SDS011;8222;51.462;12.630;2022-09-29T04:38:33;5.85;;;4.50;;
16228;SDS011;8222;51.462;12.630;2022-09-29T04:41:02;5.45;;;4.68;;
16228;SDS011;8222;51.462;12.630;2022-09-29T04:43:28;5.53;;;4.90;;
16228;SDS011;8222;51.462;12.630;2022-09-29T04:46:05;6.55;;;5.07;;
16228;SDS011;8222;51.462;12.630;2022-09-29T04:48:32;7.68;;;6.45;;
16228;SDS011;8222;51.462;12.630;2022-09-29T04:50:59;11.15;;;8.23;;
16228;SDS011;8222;51.462;12.630;2022-09-29T04:53:25;6.18;;;5.43;;
16228;SDS011;8222;51.462;12.630;2022-09-29T04:55:51;5.45;;;4.63;;
16228;SDS011;8222;51.462;12.630;2022-09-29T04:58:17;4.90;;;4.40;;
16228;SDS011;8222;51.462;12.630;2022-09-29T05:00:43;5.85;;;5.28;;
16228;SDS011;8222;51.462;12.630;2022-09-29T05:03:08;5.33;;;4.73;;
16228;SDS011;8222;51.462;12.630;2022-09-29T05:05:34;5.68;;;4.85;;
16228;SDS011;8222;51.462;12.630;2022-09-29T05:08:02;6.32;;;5.60;;
16228;SDS011;8222;51.462;12.630;2022-09-29T05:10:31;5.70;;;4.93;;
16228;SDS011;8222;51.462;12.630;2022-09-29T05:12:59;5.53;;;4.60;;
16228;SDS011;8222;51.462;12.630;2022-09-29T05:15:27;5.07;;;4.50;;
16228;SDS011;8222;51.462;12.630;2022-09-29T05:17:53;5.17;;;4.67;;
16228;SDS011;8222;51.462;12.630;2022-09-29T05:20:24;5.95;;;5.32;;
16228;SDS011;8222;51.462;12.630;2022-09-29T05:22:50;5.47;;;4.70;;
16228;SDS011;8222;51.462;12.630;2022-09-29T05:25:16;6.73;;;5.70;;
16228;SDS011;8222;51.462;12.630;2022-09-29T05:27:41;5.03;;;4.27;;
16228;SDS011;8222;51.462;12.630;2022-09-29T05:30:07;6.75;;;5.43;;
16228;SDS011;8222;51.462;12.630;2022-09-29T05:32:33;7.32;;;4.95;;
16228;SDS011;8222;51.462;12.630;2022-09-29T05:34:59;5.25;;;4.70;;
16228;SDS011;8222;51.462;12.630;2022-09-29T05:37:25;5.82;;;4.80;;
16228;SDS011;8222;51.462;12.630;2022-09-29T05:39:52;5.40;;;4.25;;
16228;SDS011;8222;51.462;12.630;2022-09-29T05:42:18;5.67;;;5.07;;
16228;SDS011;8222;51.462;12.630;2022-09-29T05:44:44;5.20;;;4.70;;
16228;SDS011;8222;51.462;12.630;2022-09-29T05:47:10;6.13;;;4.90;;
16228;SDS011;8222;51.462;12.630;2022-09-29T05:49:37;6.38;;;4.57;;
16228;SDS011;8222;51.462;12.630;2022-09-29T05:52:03;4.90;;;4.18;;
16228;SDS011;8222;51.462;12.630;2022-09-29T05:54:28;5.72;;;5.13;;
16228;SDS011;8222;51.462;12.630;2022-09-29T05:56:54;5.73;;;5.07;;
16228;SDS011;8222;51.462;12.630;2022-09-29T05:59:23;5.70;;;4.72;;
16228;SDS011;8222;51.462;12.630;2022-09-29T06:01:50;5.07;;;4.57;;
16228;SDS011;8222;51.462;12.630;2022-09-29T06:04:16;6.30;;;5.07;;
16228;SDS011;8222;51.462;12.630;2022-09-29T06:06:42;5.47;;;4.87;;
16228;SDS011;8222;51.462;12.630;2022-09-29T06:09:10;5.60;;;4.72;;
16228;SDS011;8222;51.462;12.630;2022-09-29T06:11:35;5.63;;;4.75;;
16228;SDS011;8222;51.462;12.630;2022-09-29T06:14:01;4.63;;;4.17;;
16228;SDS011;8222;51.462;12.630;2022-09-29T06:16:28;5.40;;;4.20;;
16228;SDS011;8222;51.462;12.630;2022-09-29T06:18:55;4.88;;;4.10;;
16228;SDS011;8222;51.462;12.630;2022-09-29T06:21:25;5.18;;;4.68;;
16228;SDS011;8222;51.462;12.630;2022-09-29T06:23:53;5.20;;;4.70;;
16228;SDS011;8222;51.462;12.630;2022-09-29T06:26:20;6.50;;;4.50;;
16228;SDS011;8222;51.462;12.630;2022-09-29T06:28:49;5.82;;;4.85;;
16228;SDS011;8222;51.462;12.630;2022-09-29T06:31:20;6.55;;;5.85;;
16228;SDS011;8222;51.462;12.630;2022-09-29T06:33:47;6.77;;;5.40;;
16228;SDS011;8222;51.462;12.630;2022-09-29T06:36:16;5.22;;;4.65;;
16228;SDS011;8222;51.462;12.630;2022-09-29T06:39:21;6.28;;;5.15;;
16228;SDS011;8222;51.462;12.630;2022-09-29T06:41:47;5.53;;;4.47;;
16228;SDS011;8222;51.462;12.630;2022-09-29T06:44:20;5.13;;;4.63;;
16228;SDS011;8222;51.462;12.630;2022-09-29T06:46:48;5.57;;;4.93;;
16228;SDS011;8222;51.462;12.630;2022-09-29T06:49:16;6.10;;;4.80;;
16228;SDS011;8222;51.462;12.630;2022-09-29T06:51:43;6.95;;;4.72;;
16228;SDS011;8222;51.462;12.630;2022-09-29T06:54:10;5.53;;;5.03;;
16228;SDS011;8222;51.462;12.630;2022-09-29T06:56:36;5.95;;;4.70;;
16228;SDS011;8222;51.462;12.630;2022-09-29T06:59:01;6.07;;;4.95;;
16228;SDS011;8222;51.462;12.630;2022-09-29T07:01:27;6.13;;;5.53;;
16228;SDS011;8222;51.462;12.630;2022-09-29T07:03:55;6.68;;;5.38;;
16228;SDS011;8222;51.462;12.630;2022-09-29T07:06:21;6.35;;;5.40;;
16228;SDS011;8222;51.462;12.630;2022-09-29T07:08:46;5.82;;;5.22;;
16228;SDS011;8222;51.462;12.630;2022-09-29T07:11:14;6.38;;;5.30;;
16228;SDS011;8222;51.462;12.630;2022-09-29T07:13:41;6.93;;;6.07;;
16228;SDS011;8222;51.462;12.630;2022-09-29T07:16:10;8.20;;;5.35;;
16228;SDS011;8222;51.462;12.630;2022-09-29T07:18:38;6.65;;;5.88;;
16228;SDS011;8222;51.462;12.630;2022-09-29T07:21:08;6.15;;;5.10;;
16228;SDS011;8222;51.462;12.630;2022-09-29T07:23:42;6.30;;;5.18;;
16228;SDS011;8222;51.462;12.630;2022-09-29T07:26:11;7.28;;;5.72;;
16228;SDS011;8222;51.462;12.630;2022-09-29T07:28:40;5.75;;;5.15;;
16228;SDS011;8222;51.462;12.630;2022-09-29T07:31:13;5.90;;;5.30;;
16228;SDS011;8222;51.462;12.630;2022-09-29T07:33:43;6.13;;;5.60;;
16228;SDS011;8222;51.462;12.630;2022-09-29T07:36:10;5.68;;;5.13;;
16228;SDS011;8222;51.462;12.630;2022-09-29T07:38:36;6.25;;;5.50;;
16228;SDS011;8222;51.462;12.630;2022-09-29T07:41:02;6.37;;;5.30;;
16228;SDS011;8222;51.462;12.630;2022-09-29T07:43:36;8.47;;;5.87;;
16228;SDS011;8222;51.462;12.630;2022-09-29T07:46:02;6.45;;;5.75;;
16228;SDS011;8222;51.462;12.630;2022-09-29T07:48:30;7.13;;;6.43;;
16228;SDS011;8222;51.462;12.630;2022-09-29T07:51:11;7.65;;;6.85;;
16228;SDS011;8222;51.462;12.630;2022-09-29T07:53:39;7.57;;;6.78;;
16228;SDS011;8222;51.462;12.630;2022-09-29T07:56:09;7.68;;;6.70;;
16228;SDS011;8222;51.462;12.630;2022-09-29T07:58:40;8.00;;;6.93;;
16228;SDS011;8222;51.462;12.630;2022-09-29T08:01:06;8.38;;;6.97;;
16228;SDS011;8222;51.462;12.630;2022-09-29T08:03:37;7.50;;;6.53;;
16228;SDS011;8222;51.462;12.630;2022-09-29T08:06:05;7.63;;;6.90;;
16228;SDS011;8222;51.462;12.630;2022-09-29T08:08:33;8.23;;;7.43;;
16228;SDS011;8222;51.462;12.630;2022-09-29T08:11:02;9.00;;;7.85;;
16228;SDS011;8222;51.462;12.630;2022-09-29T08:13:33;8.52;;;7.72;;
16228;SDS011;8222;51.462;12.630;2022-09-29T08:16:02;7.72;;;6.88;;
16228;SDS011;8222;51.462;12.630;2022-09-29T08:18:30;8.57;;;7.13;;
16228;SDS011;8222;51.462;12.630;2022-09-29T08:20:59;8.57;;;7.03;;
16228;SDS011;8222;51.462;12.630;2022-09-29T08:23:33;7.93;;;7.13;;
16228;SDS011;8222;51.462;12.630;2022-09-29T08:26:05;8.88;;;7.82;;
16228;SDS011;8222;51.462;12.630;2022-09-29T08:28:39;8.18;;;7.43;;
16228;SDS011;8222;51.462;12.630;2022-09-29T08:31:10;9.35;;;8.45;;
16228;SDS011;8222;51.462;12.630;2022-09-29T08:33:38;8.90;;;8.00;;
16228;SDS011;8222;51.462;12.630;2022-09-29T08:36:04;8.80;;;7.90;;
16228;SDS011;8222;51.462;12.630;2022-09-29T08:38:39;8.13;;;7.43;;
16228;SDS011;8222;51.462;12.630;2022-09-29T08:46:48;8.93;;;7.50;;
16228;SDS011;8222;51.462;12.630;2022-09-29T08:49:36;7.75;;;6.85;;
16228;SDS011;8222;51.462;12.630;2022-09-29T08:52:08;8.85;;;7.90;;
16228;SDS011;8222;51.462;12.630;2022-09-29T08:54:46;8.38;;;7.57;;
16228;SDS011;8222;51.462;12.630;2022-09-29T08:57:17;6.80;;;6.10;;
16228;SDS011;8222;51.462;12.630;2022-09-29T08:59:54;8.50;;;7.70;;
16228;SDS011;8222;51.462;12.630;2022-09-29T09:02:47;8.57;;;7.68;;
16228;SDS011;8222;51.462;12.630;2022-09-29T09:05:24;8.45;;;7.65;;
16228;SDS011;8222;51.462;12.630;2022-09-29T09:10:58;8.60;;;7.70;;
16228;SDS011;8222;51.462;12.630;2022-09-29T09:16:36;8.13;;;7.37;;
16228;SDS011;8222;51.462;12.630;2022-09-29T09:27:38;8.57;;;7.10;;
16228;SDS011;8222;51.462;12.630;2022-09-29T09:30:12;8.30;;;7.60;;
16228;SDS011;8222;51.462;12.630;2022-09-29T09:32:44;7.13;;;6.53;;
16228;SDS011;8222;51.462;12.630;2022-09-29T09:38:00;7.45;;;6.85;;
16228;SDS011;8222;51.462;12.630;2022-09-29T09:40:35;6.50;;;5.82;;
16228;SDS011;8222;51.462;12.630;2022-09-29T09:45:45;6.85;;;6.25;;
16228;SDS011;8222;51.462;12.630;2022-09-29T09:48:24;7.53;;;6.82;;
16228;SDS011;8222;51.462;12.630;2022-09-29T09:50:58;6.35;;;5.85;;
16228;SDS011;8222;51.462;12.630;2022-09-29T09:53:33;9.48;;;6.35;;
16228;SDS011;8222;51.462;12.630;2022-09-29T10:01:07;6.90;;;6.30;;
16228;SDS011;8222;51.462;12.630;2022-09-29T10:03:36;6.30;;;5.70;;
16228;SDS011;8222;51.462;12.630;2022-09-29T10:06:03;6.05;;;5.55;;
16228;SDS011;8222;51.462;12.630;2022-09-29T10:08:37;6.00;;;5.50;;
16228;SDS011;8222;51.462;12.630;2022-09-29T10:11:20;5.95;;;5.45;;
16228;SDS011;8222;51.462;12.630;2022-09-29T10:13:54;5.18;;;4.78;;
16228;SDS011;8222;51.462;12.630;2022-09-29T10:16:34;4.88;;;4.47;;
16228;SDS011;8222;51.462;12.630;2022-09-29T10:19:07;4.13;;;3.72;;
16228;SDS011;8222;51.462;12.630;2022-09-29T10:21:42;6.95;;;6.38;;
16228;SDS011;8222;51.462;12.630;2022-09-29T10:27:06;4.03;;;3.72;;
16228;SDS011;8222;51.462;12.630;2022-09-29T10:29:33;3.37;;;3.07;;
16228;SDS011;8222;51.462;12.630;2022-09-29T10:32:07;4.82;;;4.43;;
16228;SDS011;8222;51.462;12.630;2022-09-29T10:34:39;3.72;;;3.42;;
16228;SDS011;8222;51.462;12.630;2022-09-29T10:37:17;5.05;;;3.80;;
16228;SDS011;8222;51.462;12.630;2022-09-29T10:39:45;2.78;;;2.50;;
16228;SDS011;8222;51.462;12.630;2022-09-29T10:42:15;2.83;;;2.63;;
16228;SDS011;8222;51.462;12.630;2022-09-29T10:44:41;2.60;;;2.40;;
16228;SDS011;8222;51.462;12.630;2022-09-29T10:47:12;3.30;;;3.00;;
16228;SDS011;8222;51.462;12.630;2022-09-29T10:49:39;4.95;;;3.22;;
16228;SDS011;8222;51.462;12.630;2022-09-29T10:52:19;3.58;;;3.28;;
16228;SDS011;8222;51.462;12.630;2022-09-29T10:54:56;4.22;;;3.85;;
16228;SDS011;8222;51.462;12.630;2022-09-29T10:57:25;4.03;;;3.72;;
16228;SDS011;8222;51.462;12.630;2022-09-29T10:59:53;3.00;;;2.80;;
16228;SDS011;8222;51.462;12.630;2022-09-29T11:05:24;3.60;;;3.30;;
16228;SDS011;8222;51.462;12.630;2022-09-29T11:07:50;3.78;;;3.47;;
16228;SDS011;8222;51.462;12.630;2022-09-29T11:10:35;3.20;;;2.90;;
16228;SDS011;8222;51.462;12.630;2022-09-29T11:15:48;3.38;;;2.53;;
16228;SDS011;8222;51.462;12.630;2022-09-29T11:18:35;2.92;;;2.72;;
16228;SDS011;8222;51.462;12.630;2022-09-29T11:21:28;3.70;;;3.40;;
16228;SDS011;8222;51.462;12.630;2022-09-29T11:24:23;3.80;;;3.50;;
16228;SDS011;8222;51.462;12.630;2022-09-29T11:27:12;3.35;;;2.70;;
16228;SDS011;8222;51.462;12.630;2022-09-29T11:32:50;3.80;;;2.97;;
16228;SDS011;8222;51.462;12.630;2022-09-29T11:43:59;3.95;;;2.95;;
16228;SDS011;8222;51.462;12.630;2022-09-29T11:46:49;2.97;;;2.78;;
16228;SDS011;8222;51.462;12.630;2022-09-29T11:58:41;3.40;;;3.03;;
16228;SDS011;8222;51.462;12.630;2022-09-29T12:01:25;3.20;;;3.00;;
16228;SDS011;8222;51.462;12.630;2022-09-29T12:04:22;3.27;;;2.93;;
16228;SDS011;8222;51.462;12.630;2022-09-29T12:18:27;3.20;;;2.95;;
16228;SDS011;8222;51.462;12.630;2022-09-29T12:20:59;3.55;;;3.25;;
16228;SDS011;8222;51.462;12.630;2022-09-29T12:23:28;3.35;;;2.85;;
16228;SDS011;8222;51.462;12.630;2022-09-29T12:26:02;2.78;;;2.58;;
16228;SDS011;8222;51.462;12.630;2022-09-29T12:28:34;3.60;;;2.83;;
16228;SDS011;8222;51.462;12.630;2022-09-29T12:33:58;3.15;;;2.63;;
16228;SDS011;8222;51.462;12.630;2022-09-29T12:36:56;3.07;;;2.87;;
16228;SDS011;8222;51.462;12.630;2022-09-29T12:39:43;3.47;;;3.28;;
16228;SDS011;8222;51.462;12.630;2022-09-29T12:42:15;3.28;;;3.00;;
16228;SDS011;8222;51.462;12.630;2022-09-29T12:50:28;2.85;;;2.65;;
16228;SDS011;8222;51.462;12.630;2022-09-29T12:53:09;3.53;;;3.33;;
16228;SDS011;8222;51.462;12.630;2022-09-29T12:55:43;2.83;;;2.63;;
16228;SDS011;8222;51.462;12.630;2022-09-29T12:58:27;3.10;;;2.80;;
16228;SDS011;8222;51.462;12.630;2022-09-29T13:01:29;2.75;;;2.55;;
16228;SDS011;8222;51.462;12.630;2022-09-29T13:06:53;2.90;;;2.70;;
16228;SDS011;8222;51.462;12.630;2022-09-29T13:24:18;3.88;;;3.10;;
16228;SDS011;8222;51.462;12.630;2022-09-29T13:29:24;3.00;;;2.72;;
16228;SDS011;8222;51.462;12.630;2022-09-29T13:31:53;3.28;;;3.08;;
16228;SDS011;8222;51.462;12.630;2022-09-29T13:34:28;3.38;;;3.08;;
16228;SDS011;8222;51.462;12.630;2022-09-29T13:37:10;2.95;;;2.75;;
16228;SDS011;8222;51.462;12.630;2022-09-29T13:39:42;3.00;;;2.80;;
16228;SDS011;8222;51.462;12.630;2022-09-29T13:42:37;3.00;;;2.80;;
16228;SDS011;8222;51.462;12.630;2022-09-29T13:47:44;2.88;;;2.67;;
16228;SDS011;8222;51.462;12.630;2022-09-29T13:56:14;4.07;;;3.77;;
16228;SDS011;8222;51.462;12.630;2022-09-29T14:01:10;4.07;;;3.78;;
16228;SDS011;8222;51.462;12.630;2022-09-29T14:03:40;4.00;;;3.75;;
16228;SDS011;8222;51.462;12.630;2022-09-29T14:06:19;4.53;;;4.20;;
16228;SDS011;8222;51.462;12.630;2022-09-29T14:11:30;4.38;;;4.07;;
16228;SDS011;8222;51.462;12.630;2022-09-29T14:14:04;4.43;;;4.07;;
16228;SDS011;8222;51.462;12.630;2022-09-29T14:16:51;4.00;;;3.70;;
16228;SDS011;8222;51.462;12.630;2022-09-29T14:27:45;3.72;;;3.42;;
16228;SDS011;8222;51.462;12.630;2022-09-29T14:33:00;3.70;;;3.40;;
16228;SDS011;8222;51.462;12.630;2022-09-29T14:35:34;4.18;;;3.60;;
16228;SDS011;8222;51.462;12.630;2022-09-29T14:40:52;3.88;;;3.58;;
16228;SDS011;8222;51.462;12.630;2022-09-29T14:43:24;3.58;;;3.28;;
16228;SDS011;8222;51.462;12.630;2022-09-29T15:03:49;2.80;;;2.60;;
16228;SDS011;8222;51.462;12.630;2022-09-29T15:06:17;3.78;;;2.97;;
16228;SDS011;8222;51.462;12.630;2022-09-29T15:13:53;2.72;;;2.53;;
16228;SDS011;8222;51.462;12.630;2022-09-29T15:16:21;2.92;;;2.72;;
16228;SDS011;8222;51.462;12.630;2022-09-29T15:24:47;3.00;;;2.80;;
16228;SDS011;8222;51.462;12.630;2022-09-29T15:27:14;2.83;;;2.53;;
16228;SDS011;8222;51.462;12.630;2022-09-29T15:29:44;2.65;;;2.45;;
16228;SDS011;8222;51.462;12.630;2022-09-29T15:32:26;2.97;;;2.78;;
16228;SDS011;8222;51.462;12.630;2022-09-29T15:35:01;2.70;;;2.50;;
16228;SDS011;8222;51.462;12.630;2022-09-29T15:37:41;2.85;;;2.38;;
16228;SDS011;8222;51.462;12.630;2022-09-29T15:40:19;6.15;;;3.78;;
16228;SDS011;8222;51.462;12.630;2022-09-29T15:42:48;3.40;;;3.10;;
16228;SDS011;8222;51.462;12.630;2022-09-29T15:45:19;2.83;;;2.60;;
16228;SDS011;8222;51.462;12.630;2022-09-29T15:47:48;4.30;;;3.90;;
16228;SDS011;8222;51.462;12.630;2022-09-29T15:50:26;2.88;;;2.58;;
16228;SDS011;8222;51.462;12.630;2022-09-29T15:52:56;3.97;;;3.67;;
16228;SDS011;8222;51.462;12.630;2022-09-29T15:55:27;4.78;;;4.38;;
16228;SDS011;8222;51.462;12.630;2022-09-29T15:57:54;5.10;;;4.60;;
16228;SDS011;8222;51.462;12.630;2022-09-29T16:03:02;5.47;;;4.97;;
16228;SDS011;8222;51.462;12.630;2022-09-29T16:05:39;6.63;;;6.00;;
16228;SDS011;8222;51.462;12.630;2022-09-29T16:08:19;24.15;;;21.55;;
16228;SDS011;8222;51.462;12.630;2022-09-29T16:10:52;5.60;;;5.18;;
16228;SDS011;8222;51.462;12.630;2022-09-29T16:13:24;4.55;;;4.25;;
16228;SDS011;8222;51.462;12.630;2022-09-29T16:15:57;4.47;;;4.07;;
16228;SDS011;8222;51.462;12.630;2022-09-29T16:18:36;4.93;;;4.47;;
16228;SDS011;8222;51.462;12.630;2022-09-29T16:21:11;5.60;;;5.10;;
16228;SDS011;8222;51.462;12.630;2022-09-29T16:23:49;6.07;;;4.70;;
16228;SDS011;8222;51.462;12.630;2022-09-29T16:29:21;5.05;;;4.55;;
16228;SDS011;8222;51.462;12.630;2022-09-29T16:31:49;5.38;;;4.88;;
16228;SDS011;8222;51.462;12.630;2022-09-29T16:36:54;5.20;;;4.70;;
16228;SDS011;8222;51.462;12.630;2022-09-29T16:39:38;5.30;;;4.80;;
16228;SDS011;8222;51.462;12.630;2022-09-29T16:42:13;5.88;;;5.28;;
16228;SDS011;8222;51.462;12.630;2022-09-29T16:44:46;18.02;;;15.73;;
16228;SDS011;8222;51.462;12.630;2022-09-29T16:52:24;10.73;;;9.65;;
16228;SDS011;8222;51.462;12.630;2022-09-29T16:55:17;7.47;;;6.80;;
16228;SDS011;8222;51.462;12.630;2022-09-29T16:58:10;5.55;;;5.07;;
16228;SDS011;8222;51.462;12.630;2022-09-29T17:00:37;4.30;;;4.00;;
16228;SDS011;8222;51.462;12.630;2022-09-29T17:03:05;4.27;;;3.97;;
16228;SDS011;8222;51.462;12.630;2022-09-29T17:05:36;3.50;;;3.30;;
16228;SDS011;8222;51.462;12.630;2022-09-29T17:08:09;3.53;;;3.22;;
16228;SDS011;8222;51.462;12.630;2022-09-29T17:10:58;2.65;;;2.45;;
16228;SDS011;8222;51.462;12.630;2022-09-29T17:13:29;2.70;;;2.38;;
16228;SDS011;8222;51.462;12.630;2022-09-29T17:15:59;2.60;;;2.40;;
16228;SDS011;8222;51.462;12.630;2022-09-29T17:18:25;2.58;;;2.38;;
16228;SDS011;8222;51.462;12.630;2022-09-29T17:20:52;2.70;;;2.50;;
16228;SDS011;8222;51.462;12.630;2022-09-29T17:23:18;2.23;;;2.13;;
16228;SDS011;8222;51.462;12.630;2022-09-29T17:25:44;2.80;;;2.60;;
16228;SDS011;8222;51.462;12.630;2022-09-29T17:28:13;3.70;;;3.40;;
16228;SDS011;8222;51.462;12.630;2022-09-29T17:30:45;4.15;;;3.85;;
16228;SDS011;8222;51.462;12.630;2022-09-29T17:33:15;3.90;;;3.42;;
16228;SDS011;8222;51.462;12.630;2022-09-29T17:35:45;3.05;;;2.85;;
16228;SDS011;8222;51.462;12.630;2022-09-29T17:38:13;2.70;;;2.50;;
16228;SDS011;8222;51.462;12.630;2022-09-29T17:43:29;2.53;;;2.40;;
16228;SDS011;8222;51.462;12.630;2022-09-29T17:45:55;2.90;;;2.70;;
16228;SDS011;8222;51.462;12.630;2022-09-29T17:48:24;3.50;;;3.30;;
16228;SDS011;8222;51.462;12.630;2022-09-29T17:50:51;3.60;;;3.30;;
16228;SDS011;8222;51.462;12.630;2022-09-29T17:53:20;3.05;;;2.85;;
16228;SDS011;8222;51.462;12.630;2022-09-29T17:55:48;3.10;;;2.90;;
16228;SDS011;8222;51.462;12.630;2022-09-29T17:58:15;2.90;;;2.70;;
16228;SDS011;8222;51.462;12.630;2022-09-29T18:00:43;3.22;;;3.03;;
16228;SDS011;8222;51.462;12.630;2022-09-29T18:03:11;3.80;;;3.00;;
16228;SDS011;8222;51.462;12.630;2022-09-29T18:05:37;4.00;;;3.70;;
16228;SDS011;8222;51.462;12.630;2022-09-29T18:08:05;4.03;;;3.70;;
16228;SDS011;8222;51.462;12.630;2022-09-29T18:13:03;6.07;;;5.68;;
16228;SDS011;8222;51.462;12.630;2022-09-29T18:15:29;4.88;;;4.57;;
16228;SDS011;8222;51.462;12.630;2022-09-29T18:17:55;4.78;;;4.40;;
16228;SDS011;8222;51.462;12.630;2022-09-29T18:20:22;5.43;;;5.07;;
16228;SDS011;8222;51.462;12.630;2022-09-29T18:22:49;5.10;;;4.80;;
16228;SDS011;8222;51.462;12.630;2022-09-29T18:25:16;5.07;;;4.78;;
16228;SDS011;8222;51.462;12.630;2022-09-29T18:27:46;4.95;;;4.65;;
16228;SDS011;8222;51.462;12.630;2022-09-29T18:30:23;5.03;;;4.57;;
16228;SDS011;8222;51.462;12.630;2022-09-29T18:32:52;5.82;;;5.38;;
16228;SDS011;8222;51.462;12.630;2022-09-29T18:35:20;5.25;;;4.85;;
16228;SDS011;8222;51.462;12.630;2022-09-29T18:37:48;5.70;;;5.22;;
16228;SDS011;8222;51.462;12.630;2022-09-29T18:40:14;5.65;;;5.20;;
16228;SDS011;8222;51.462;12.630;2022-09-29T18:42:47;6.25;;;5.82;;